Bearsdale, Illinois
Current Conditions -  °F | °C
As of 2:54 PM on Tuesday 25 Nov 2014 (Local Time) from KDEC Reporting Station
Overcast Overcast  
Wind Chill: -4°   Ceiling: 2100
Heat Index: -1°   Visibility: 10mi
Dew Point: -6°   Wind: 7mph
Humidity: 69%   Direction: 240°WSW
Pressure: 30.15"   Gusts: NA
Location:  39.9062°N, 88.9645°W
Report Text: KDEC 252054Z 24006KT 10SM OVC021 M01/M06 A3015 RMK AO2 SLP216 T10061056 58009
Loading
Personal Weather Stations






























Interactive Weather Map New forecast layout! Learn more

10-Day Weather Forecast

Advertisements
Track Severe Weather on mobile